<?xml version="1.0" encoding="UTF-8" standalone="no" ?>
<gpx xmlns="http://www.topografix.com/GPX/1/1" xmlns:xsi="http://www.w3.org/2001/XMLSchema-instance" xsi:schemaLocation="http://www.topografix.com/GPX/1/1 http://www.topografix.com/GPX/1/1/gpx.xsd" version="1.1" creator="VisuGPX - https://www.visugpx.com">
  <metadata>
    <name>G3 Cascade Brochaux, lac Vert, CrÃªte Rochassons</name>
  </metadata>
  <wpt lat="46.20863" lon="6.77554">
    <ele>1495</ele>
    <name><![CDATA[Point de passage 1]]></name>
  </wpt>
  <wpt lat="46.20898" lon="6.77536">
    <ele>1492</ele>
    <name><![CDATA[Point de passage 2]]></name>
  </wpt>
  <trk>
    <name><![CDATA[Cascade Brochaux, lac Vert, CrÃªte Rochassons]]></name>
    <extensions>
      <line xmlns="http://www.topografix.com/GPX/gpx_style/0/2">
        <color>0000FF</color>
        <width>4</width>
      </line>
    </extensions>
    <trkseg>
      <trkpt lat="46.20863" lon="6.77554">
        <ele>1495</ele>
        <time>2026-09-01T08:33:23.000Z</time>
      </trkpt>
      <trkpt lat="46.20862" lon="6.77554">
        <ele>1495</ele>
        <time>2026-09-01T08:33:25.000Z</time>
      </trkpt>
      <trkpt lat="46.20846" lon="6.77596">
        <ele>1494</ele>
        <time>2026-09-01T08:34:02.000Z</time>
      </trkpt>
      <trkpt lat="46.20795" lon="6.77628">
        <ele>1494</ele>
        <time>2026-09-01T08:35:06.000Z</time>
      </trkpt>
      <trkpt lat="46.20759" lon="6.77685">
        <ele>1495</ele>
        <time>2026-09-01T08:36:18.000Z</time>
      </trkpt>
      <trkpt lat="46.20733" lon="6.77704">
        <ele>1495</ele>
        <time>2026-09-01T08:36:50.000Z</time>
      </trkpt>
      <trkpt lat="46.20707" lon="6.77733">
        <ele>1496</ele>
        <time>2026-09-01T08:37:38.000Z</time>
      </trkpt>
      <trkpt lat="46.20696" lon="6.77755">
        <ele>1496</ele>
        <time>2026-09-01T08:38:00.000Z</time>
      </trkpt>
      <trkpt lat="46.20631" lon="6.77815">
        <ele>1496</ele>
        <time>2026-09-01T08:39:28.000Z</time>
      </trkpt>
      <trkpt lat="46.20627" lon="6.7782">
        <ele>1497</ele>
        <time>2026-09-01T08:39:45.000Z</time>
      </trkpt>
      <trkpt lat="46.20636" lon="6.77842">
        <ele>1497</ele>
        <time>2026-09-01T08:40:06.000Z</time>
      </trkpt>
      <trkpt lat="46.20638" lon="6.7787">
        <ele>1498</ele>
        <time>2026-09-01T08:40:38.000Z</time>
      </trkpt>
      <trkpt lat="46.20635" lon="6.77894">
        <ele>1498</ele>
        <time>2026-09-01T08:40:57.000Z</time>
      </trkpt>
      <trkpt lat="46.2061" lon="6.77964">
        <ele>1505</ele>
        <time>2026-09-01T08:43:12.000Z</time>
      </trkpt>
      <trkpt lat="46.20586" lon="6.78008">
        <ele>1512</ele>
        <time>2026-09-01T08:45:08.000Z</time>
      </trkpt>
      <trkpt lat="46.20494" lon="6.7813">
        <ele>1535</ele>
        <time>2026-09-01T08:51:28.000Z</time>
      </trkpt>
      <trkpt lat="46.20485" lon="6.78147">
        <ele>1537</ele>
        <time>2026-09-01T08:52:05.000Z</time>
      </trkpt>
      <trkpt lat="46.2047" lon="6.78197">
        <ele>1539</ele>
        <time>2026-09-01T08:53:09.000Z</time>
      </trkpt>
      <trkpt lat="46.20464" lon="6.78198">
        <ele>1540</ele>
        <time>2026-09-01T08:53:26.000Z</time>
      </trkpt>
      <trkpt lat="46.20454" lon="6.78209">
        <ele>1540</ele>
        <time>2026-09-01T08:53:40.000Z</time>
      </trkpt>
      <trkpt lat="46.20448" lon="6.78221">
        <ele>1541</ele>
        <time>2026-09-01T08:54:02.000Z</time>
      </trkpt>
      <trkpt lat="46.20447" lon="6.78242">
        <ele>1542</ele>
        <time>2026-09-01T08:54:29.000Z</time>
      </trkpt>
      <trkpt lat="46.20441" lon="6.78258">
        <ele>1543</ele>
        <time>2026-09-01T08:54:54.000Z</time>
      </trkpt>
      <trkpt lat="46.20431" lon="6.78265">
        <ele>1542</ele>
        <time>2026-09-01T08:55:06.000Z</time>
      </trkpt>
      <trkpt lat="46.20405" lon="6.78269">
        <ele>1543</ele>
        <time>2026-09-01T08:55:47.000Z</time>
      </trkpt>
      <trkpt lat="46.20391" lon="6.78287">
        <ele>1543</ele>
        <time>2026-09-01T08:56:09.000Z</time>
      </trkpt>
      <trkpt lat="46.20378" lon="6.78292">
        <ele>1543</ele>
        <time>2026-09-01T08:56:24.000Z</time>
      </trkpt>
      <trkpt lat="46.20367" lon="6.78301">
        <ele>1544</ele>
        <time>2026-09-01T08:56:49.000Z</time>
      </trkpt>
      <trkpt lat="46.20357" lon="6.78299">
        <ele>1544</ele>
        <time>2026-09-01T08:57:01.000Z</time>
      </trkpt>
      <trkpt lat="46.20329" lon="6.7832">
        <ele>1544</ele>
        <time>2026-09-01T08:57:37.000Z</time>
      </trkpt>
      <trkpt lat="46.2032" lon="6.78319">
        <ele>1545</ele>
        <time>2026-09-01T08:57:58.000Z</time>
      </trkpt>
      <trkpt lat="46.20321" lon="6.78354">
        <ele>1545</ele>
        <time>2026-09-01T08:58:26.000Z</time>
      </trkpt>
      <trkpt lat="46.2031" lon="6.78395">
        <ele>1546</ele>
        <time>2026-09-01T08:59:11.000Z</time>
      </trkpt>
      <trkpt lat="46.20267" lon="6.78449">
        <ele>1547</ele>
        <time>2026-09-01T09:00:27.000Z</time>
      </trkpt>
      <trkpt lat="46.20252" lon="6.78485">
        <ele>1549</ele>
        <time>2026-09-01T09:01:21.000Z</time>
      </trkpt>
      <trkpt lat="46.20239" lon="6.78495">
        <ele>1549</ele>
        <time>2026-09-01T09:01:38.000Z</time>
      </trkpt>
      <trkpt lat="46.20174" lon="6.78537">
        <ele>1554</ele>
        <time>2026-09-01T09:03:51.000Z</time>
      </trkpt>
      <trkpt lat="46.20151" lon="6.78535">
        <ele>1555</ele>
        <time>2026-09-01T09:04:28.000Z</time>
      </trkpt>
      <trkpt lat="46.20141" lon="6.78538">
        <ele>1556</ele>
        <time>2026-09-01T09:04:49.000Z</time>
      </trkpt>
      <trkpt lat="46.20114" lon="6.7857">
        <ele>1560</ele>
        <time>2026-09-01T09:06:10.000Z</time>
      </trkpt>
      <trkpt lat="46.20091" lon="6.78584">
        <ele>1565</ele>
        <time>2026-09-01T09:07:30.000Z</time>
      </trkpt>
      <trkpt lat="46.20085" lon="6.78595">
        <ele>1565</ele>
        <time>2026-09-01T09:07:42.000Z</time>
      </trkpt>
      <trkpt lat="46.20079" lon="6.78594">
        <ele>1566</ele>
        <time>2026-09-01T09:07:58.000Z</time>
      </trkpt>
      <trkpt lat="46.2006" lon="6.78608">
        <ele>1571</ele>
        <time>2026-09-01T09:09:13.000Z</time>
      </trkpt>
      <trkpt lat="46.20027" lon="6.78649">
        <ele>1574</ele>
        <time>2026-09-01T09:10:33.000Z</time>
      </trkpt>
      <trkpt lat="46.20008" lon="6.78655">
        <ele>1577</ele>
        <time>2026-09-01T09:11:27.000Z</time>
      </trkpt>
      <trkpt lat="46.19985" lon="6.78672">
        <ele>1576</ele>
        <time>2026-09-01T09:11:56.000Z</time>
      </trkpt>
      <trkpt lat="46.19963" lon="6.78666">
        <ele>1578</ele>
        <time>2026-09-01T09:12:42.000Z</time>
      </trkpt>
      <trkpt lat="46.19944" lon="6.78656">
        <ele>1577</ele>
        <time>2026-09-01T09:13:06.000Z</time>
      </trkpt>
      <trkpt lat="46.1994" lon="6.78648">
        <ele>1578</ele>
        <time>2026-09-01T09:13:24.000Z</time>
      </trkpt>
      <trkpt lat="46.19936" lon="6.78649">
        <ele>1577</ele>
        <time>2026-09-01T09:13:29.000Z</time>
      </trkpt>
      <trkpt lat="46.1993" lon="6.78645">
        <ele>1578</ele>
        <time>2026-09-01T09:13:46.000Z</time>
      </trkpt>
      <trkpt lat="46.19924" lon="6.78649">
        <ele>1577</ele>
        <time>2026-09-01T09:13:53.000Z</time>
      </trkpt>
      <trkpt lat="46.19905" lon="6.78686">
        <ele>1577</ele>
        <time>2026-09-01T09:14:30.000Z</time>
      </trkpt>
      <trkpt lat="46.19879" lon="6.78707">
        <ele>1582</ele>
        <time>2026-09-01T09:15:56.000Z</time>
      </trkpt>
      <trkpt lat="46.19882" lon="6.7875">
        <ele>1579</ele>
        <time>2026-09-01T09:16:30.000Z</time>
      </trkpt>
      <trkpt lat="46.19879" lon="6.78767">
        <ele>1580</ele>
        <time>2026-09-01T09:16:54.000Z</time>
      </trkpt>
      <trkpt lat="46.19874" lon="6.78775">
        <ele>1580</ele>
        <time>2026-09-01T09:17:03.000Z</time>
      </trkpt>
      <trkpt lat="46.1984" lon="6.78804">
        <ele>1580</ele>
        <time>2026-09-01T09:17:48.000Z</time>
      </trkpt>
      <trkpt lat="46.19837" lon="6.78813">
        <ele>1580</ele>
        <time>2026-09-01T09:17:55.000Z</time>
      </trkpt>
      <trkpt lat="46.19799" lon="6.78837">
        <ele>1581</ele>
        <time>2026-09-01T09:18:53.000Z</time>
      </trkpt>
      <trkpt lat="46.19793" lon="6.78848">
        <ele>1582</ele>
        <time>2026-09-01T09:19:14.000Z</time>
      </trkpt>
      <trkpt lat="46.19781" lon="6.78869">
        <ele>1584</ele>
        <time>2026-09-01T09:19:56.000Z</time>
      </trkpt>
      <trkpt lat="46.19757" lon="6.78883">
        <ele>1585</ele>
        <time>2026-09-01T09:20:36.000Z</time>
      </trkpt>
      <trkpt lat="46.1975" lon="6.78894">
        <ele>1586</ele>
        <time>2026-09-01T09:20:58.000Z</time>
      </trkpt>
      <trkpt lat="46.19741" lon="6.78881">
        <ele>1587</ele>
        <time>2026-09-01T09:21:23.000Z</time>
      </trkpt>
      <trkpt lat="46.1973" lon="6.78884">
        <ele>1588</ele>
        <time>2026-09-01T09:21:46.000Z</time>
      </trkpt>
      <trkpt lat="46.19725" lon="6.78917">
        <ele>1593</ele>
        <time>2026-09-01T09:23:04.000Z</time>
      </trkpt>
      <trkpt lat="46.1973" lon="6.78884">
        <ele>1588</ele>
        <time>2026-09-01T09:23:30.000Z</time>
      </trkpt>
      <trkpt lat="46.19741" lon="6.78881">
        <ele>1587</ele>
        <time>2026-09-01T09:23:43.000Z</time>
      </trkpt>
      <trkpt lat="46.1975" lon="6.78894">
        <ele>1586</ele>
        <time>2026-09-01T09:23:58.000Z</time>
      </trkpt>
      <trkpt lat="46.19757" lon="6.78883">
        <ele>1585</ele>
        <time>2026-09-01T09:24:10.000Z</time>
      </trkpt>
      <trkpt lat="46.19781" lon="6.78869">
        <ele>1584</ele>
        <time>2026-09-01T09:24:40.000Z</time>
      </trkpt>
      <trkpt lat="46.19803" lon="6.78834">
        <ele>1581</ele>
        <time>2026-09-01T09:25:17.000Z</time>
      </trkpt>
      <trkpt lat="46.19837" lon="6.78813">
        <ele>1580</ele>
        <time>2026-09-01T09:26:00.000Z</time>
      </trkpt>
      <trkpt lat="46.1984" lon="6.78804">
        <ele>1580</ele>
        <time>2026-09-01T09:26:07.000Z</time>
      </trkpt>
      <trkpt lat="46.19874" lon="6.78775">
        <ele>1580</ele>
        <time>2026-09-01T09:26:52.000Z</time>
      </trkpt>
      <trkpt lat="46.19879" lon="6.78767">
        <ele>1580</ele>
        <time>2026-09-01T09:27:01.000Z</time>
      </trkpt>
      <trkpt lat="46.19882" lon="6.7875">
        <ele>1579</ele>
        <time>2026-09-01T09:27:15.000Z</time>
      </trkpt>
      <trkpt lat="46.19879" lon="6.78707">
        <ele>1582</ele>
        <time>2026-09-01T09:28:20.000Z</time>
      </trkpt>
      <trkpt lat="46.19882" lon="6.7875">
        <ele>1579</ele>
        <time>2026-09-01T09:28:54.000Z</time>
      </trkpt>
      <trkpt lat="46.1993" lon="6.78764">
        <ele>1582</ele>
        <time>2026-09-01T09:30:21.000Z</time>
      </trkpt>
      <trkpt lat="46.19975" lon="6.78755">
        <ele>1585</ele>
        <time>2026-09-01T09:31:43.000Z</time>
      </trkpt>
      <trkpt lat="46.20011" lon="6.78722">
        <ele>1588</ele>
        <time>2026-09-01T09:33:03.000Z</time>
      </trkpt>
      <trkpt lat="46.20066" lon="6.78719">
        <ele>1592</ele>
        <time>2026-09-01T09:34:48.000Z</time>
      </trkpt>
      <trkpt lat="46.201" lon="6.78726">
        <ele>1591</ele>
        <time>2026-09-01T09:35:27.000Z</time>
      </trkpt>
      <trkpt lat="46.20122" lon="6.78739">
        <ele>1590</ele>
        <time>2026-09-01T09:35:54.000Z</time>
      </trkpt>
      <trkpt lat="46.20143" lon="6.78739">
        <ele>1589</ele>
        <time>2026-09-01T09:36:18.000Z</time>
      </trkpt>
      <trkpt lat="46.20089" lon="6.78828">
        <ele>1600</ele>
        <time>2026-09-01T09:39:45.000Z</time>
      </trkpt>
      <trkpt lat="46.20073" lon="6.78864">
        <ele>1605</ele>
        <time>2026-09-01T09:41:10.000Z</time>
      </trkpt>
      <trkpt lat="46.20041" lon="6.78899">
        <ele>1612</ele>
        <time>2026-09-01T09:43:08.000Z</time>
      </trkpt>
      <trkpt lat="46.20005" lon="6.78933">
        <ele>1623</ele>
        <time>2026-09-01T09:45:51.000Z</time>
      </trkpt>
      <trkpt lat="46.19965" lon="6.78961">
        <ele>1632</ele>
        <time>2026-09-01T09:48:14.000Z</time>
      </trkpt>
      <trkpt lat="46.19949" lon="6.78964">
        <ele>1633</ele>
        <time>2026-09-01T09:48:42.000Z</time>
      </trkpt>
      <trkpt lat="46.19892" lon="6.78963">
        <ele>1639</ele>
        <time>2026-09-01T09:50:50.000Z</time>
      </trkpt>
      <trkpt lat="46.19844" lon="6.78982">
        <ele>1646</ele>
        <time>2026-09-01T09:52:58.000Z</time>
      </trkpt>
      <trkpt lat="46.19829" lon="6.78991">
        <ele>1649</ele>
        <time>2026-09-01T09:53:48.000Z</time>
      </trkpt>
      <trkpt lat="46.19805" lon="6.79031">
        <ele>1656</ele>
        <time>2026-09-01T09:55:42.000Z</time>
      </trkpt>
      <trkpt lat="46.19795" lon="6.79052">
        <ele>1660</ele>
        <time>2026-09-01T09:56:43.000Z</time>
      </trkpt>
      <trkpt lat="46.19779" lon="6.79103">
        <ele>1669</ele>
        <time>2026-09-01T09:59:00.000Z</time>
      </trkpt>
      <trkpt lat="46.1977" lon="6.79119">
        <ele>1672</ele>
        <time>2026-09-01T09:59:47.000Z</time>
      </trkpt>
      <trkpt lat="46.19717" lon="6.79176">
        <ele>1684</ele>
        <time>2026-09-01T10:03:06.000Z</time>
      </trkpt>
      <trkpt lat="46.19687" lon="6.79216">
        <ele>1693</ele>
        <time>2026-09-01T10:05:25.000Z</time>
      </trkpt>
      <trkpt lat="46.19685" lon="6.7923">
        <ele>1695</ele>
        <time>2026-09-01T10:05:57.000Z</time>
      </trkpt>
      <trkpt lat="46.19688" lon="6.7926">
        <ele>1699</ele>
        <time>2026-09-01T10:07:02.000Z</time>
      </trkpt>
      <trkpt lat="46.19669" lon="6.79318">
        <ele>1709</ele>
        <time>2026-09-01T10:09:36.000Z</time>
      </trkpt>
      <trkpt lat="46.19666" lon="6.79367">
        <ele>1710</ele>
        <time>2026-09-01T10:10:26.000Z</time>
      </trkpt>
      <trkpt lat="46.1966" lon="6.79393">
        <ele>1712</ele>
        <time>2026-09-01T10:11:08.000Z</time>
      </trkpt>
      <trkpt lat="46.19602" lon="6.79465">
        <ele>1718</ele>
        <time>2026-09-01T10:13:37.000Z</time>
      </trkpt>
      <trkpt lat="46.19586" lon="6.79496">
        <ele>1720</ele>
        <time>2026-09-01T10:14:28.000Z</time>
      </trkpt>
      <trkpt lat="46.19575" lon="6.79526">
        <ele>1721</ele>
        <time>2026-09-01T10:15:05.000Z</time>
      </trkpt>
      <trkpt lat="46.19568" lon="6.79549">
        <ele>1723</ele>
        <time>2026-09-01T10:15:45.000Z</time>
      </trkpt>
      <trkpt lat="46.19564" lon="6.79575">
        <ele>1725</ele>
        <time>2026-09-01T10:16:26.000Z</time>
      </trkpt>
      <trkpt lat="46.19561" lon="6.79649">
        <ele>1737</ele>
        <time>2026-09-01T10:19:28.000Z</time>
      </trkpt>
      <trkpt lat="46.1955" lon="6.79696">
        <ele>1747</ele>
        <time>2026-09-01T10:21:51.000Z</time>
      </trkpt>
      <trkpt lat="46.19546" lon="6.7973">
        <ele>1752</ele>
        <time>2026-09-01T10:23:10.000Z</time>
      </trkpt>
      <trkpt lat="46.19525" lon="6.79834">
        <ele>1770</ele>
        <time>2026-09-01T10:27:41.000Z</time>
      </trkpt>
      <trkpt lat="46.19532" lon="6.79989">
        <ele>1795</ele>
        <time>2026-09-01T10:34:02.000Z</time>
      </trkpt>
      <trkpt lat="46.19531" lon="6.80006">
        <ele>1798</ele>
        <time>2026-09-01T10:34:46.000Z</time>
      </trkpt>
      <trkpt lat="46.19519" lon="6.80036">
        <ele>1802</ele>
        <time>2026-09-01T10:35:54.000Z</time>
      </trkpt>
      <trkpt lat="46.19514" lon="6.80062">
        <ele>1804</ele>
        <time>2026-09-01T10:36:36.000Z</time>
      </trkpt>
      <trkpt lat="46.19549" lon="6.8008">
        <ele>1814</ele>
        <time>2026-09-01T10:39:01.000Z</time>
      </trkpt>
      <trkpt lat="46.19558" lon="6.80089">
        <ele>1819</ele>
        <time>2026-09-01T10:40:05.000Z</time>
      </trkpt>
      <trkpt lat="46.19562" lon="6.80109">
        <ele>1825</ele>
        <time>2026-09-01T10:41:23.000Z</time>
      </trkpt>
      <trkpt lat="46.19567" lon="6.80112">
        <ele>1828</ele>
        <time>2026-09-01T10:42:01.000Z</time>
      </trkpt>
      <trkpt lat="46.19568" lon="6.80139">
        <ele>1831</ele>
        <time>2026-09-01T10:42:53.000Z</time>
      </trkpt>
      <trkpt lat="46.1955" lon="6.80191">
        <ele>1835</ele>
        <time>2026-09-01T10:44:20.000Z</time>
      </trkpt>
      <trkpt lat="46.19549" lon="6.80223">
        <ele>1843</ele>
        <time>2026-09-01T10:46:07.000Z</time>
      </trkpt>
      <trkpt lat="46.19552" lon="6.80227">
        <ele>1846</ele>
        <time>2026-09-01T10:46:43.000Z</time>
      </trkpt>
      <trkpt lat="46.19552" lon="6.80246">
        <ele>1850</ele>
        <time>2026-09-01T10:47:39.000Z</time>
      </trkpt>
      <trkpt lat="46.19559" lon="6.80257">
        <ele>1858</ele>
        <time>2026-09-01T10:49:13.000Z</time>
      </trkpt>
      <trkpt lat="46.1956" lon="6.80276">
        <ele>1864</ele>
        <time>2026-09-01T10:50:30.000Z</time>
      </trkpt>
      <trkpt lat="46.1955" lon="6.80301">
        <ele>1871</ele>
        <time>2026-09-01T10:52:05.000Z</time>
      </trkpt>
      <trkpt lat="46.19541" lon="6.80312">
        <ele>1875</ele>
        <time>2026-09-01T10:52:59.000Z</time>
      </trkpt>
      <trkpt lat="46.19547" lon="6.80322">
        <ele>1880</ele>
        <time>2026-09-01T10:54:01.000Z</time>
      </trkpt>
      <trkpt lat="46.1954" lon="6.80333">
        <ele>1880</ele>
        <time>2026-09-01T10:54:13.000Z</time>
      </trkpt>
      <trkpt lat="46.19542" lon="6.80341">
        <ele>1884</ele>
        <time>2026-09-01T10:55:01.000Z</time>
      </trkpt>
      <trkpt lat="46.19527" lon="6.80399">
        <ele>1901</ele>
        <time>2026-09-01T10:58:45.000Z</time>
      </trkpt>
      <trkpt lat="46.19512" lon="6.80422">
        <ele>1906</ele>
        <time>2026-09-01T11:00:01.000Z</time>
      </trkpt>
      <trkpt lat="46.19519" lon="6.80424">
        <ele>1909</ele>
        <time>2026-09-01T11:00:40.000Z</time>
      </trkpt>
      <trkpt lat="46.19519" lon="6.80427">
        <ele>1911</ele>
        <time>2026-09-01T11:01:03.000Z</time>
      </trkpt>
      <trkpt lat="46.19495" lon="6.80452">
        <ele>1916</ele>
        <time>2026-09-01T11:02:29.000Z</time>
      </trkpt>
      <trkpt lat="46.19502" lon="6.80457">
        <ele>1920</ele>
        <time>2026-09-01T11:03:19.000Z</time>
      </trkpt>
      <trkpt lat="46.195" lon="6.80476">
        <ele>1927</ele>
        <time>2026-09-01T11:04:46.000Z</time>
      </trkpt>
      <trkpt lat="46.19508" lon="6.80478">
        <ele>1931</ele>
        <time>2026-09-01T11:05:37.000Z</time>
      </trkpt>
      <trkpt lat="46.195" lon="6.80493">
        <ele>1935</ele>
        <time>2026-09-01T11:06:33.000Z</time>
      </trkpt>
      <trkpt lat="46.19501" lon="6.80499">
        <ele>1938</ele>
        <time>2026-09-01T11:07:09.000Z</time>
      </trkpt>
      <trkpt lat="46.1953" lon="6.80495">
        <ele>1945</ele>
        <time>2026-09-01T11:08:55.000Z</time>
      </trkpt>
      <trkpt lat="46.19553" lon="6.80483">
        <ele>1948</ele>
        <time>2026-09-01T11:09:54.000Z</time>
      </trkpt>
      <trkpt lat="46.1958" lon="6.80492">
        <ele>1958</ele>
        <time>2026-09-01T11:12:09.000Z</time>
      </trkpt>
      <trkpt lat="46.1959" lon="6.80488">
        <ele>1959</ele>
        <time>2026-09-01T11:12:31.000Z</time>
      </trkpt>
      <trkpt lat="46.19603" lon="6.8049">
        <ele>1964</ele>
        <time>2026-09-01T11:13:37.000Z</time>
      </trkpt>
      <trkpt lat="46.19642" lon="6.8047">
        <ele>1976</ele>
        <time>2026-09-01T11:16:27.000Z</time>
      </trkpt>
      <trkpt lat="46.19645" lon="6.80474">
        <ele>1978</ele>
        <time>2026-09-01T11:16:52.000Z</time>
      </trkpt>
      <trkpt lat="46.19644" lon="6.80484">
        <ele>1979</ele>
        <time>2026-09-01T11:17:11.000Z</time>
      </trkpt>
      <trkpt lat="46.19631" lon="6.80527">
        <ele>1987</ele>
        <time>2026-09-01T11:19:10.000Z</time>
      </trkpt>
      <trkpt lat="46.1965" lon="6.80534">
        <ele>1991</ele>
        <time>2026-09-01T11:20:14.000Z</time>
      </trkpt>
      <trkpt lat="46.19664" lon="6.80563">
        <ele>1994</ele>
        <time>2026-09-01T11:21:12.000Z</time>
      </trkpt>
      <trkpt lat="46.1968" lon="6.8057">
        <ele>1995</ele>
        <time>2026-09-01T11:21:41.000Z</time>
      </trkpt>
      <trkpt lat="46.19652" lon="6.80675">
        <ele>1991</ele>
        <time>2026-09-01T11:23:10.000Z</time>
      </trkpt>
      <trkpt lat="46.19667" lon="6.80738">
        <ele>1994</ele>
        <time>2026-09-01T11:24:34.000Z</time>
      </trkpt>
      <trkpt lat="46.19671" lon="6.80754">
        <ele>1993</ele>
        <time>2026-09-01T11:24:47.000Z</time>
      </trkpt>
      <trkpt lat="46.19664" lon="6.80784">
        <ele>1990</ele>
        <time>2026-09-01T11:25:12.000Z</time>
      </trkpt>
      <trkpt lat="46.19646" lon="6.80833">
        <ele>1989</ele>
        <time>2026-09-01T11:25:56.000Z</time>
      </trkpt>
      <trkpt lat="46.19644" lon="6.80859">
        <ele>1988</ele>
        <time>2026-09-01T11:26:17.000Z</time>
      </trkpt>
      <trkpt lat="46.19656" lon="6.8091">
        <ele>1986</ele>
        <time>2026-09-01T11:27:00.000Z</time>
      </trkpt>
      <trkpt lat="46.19655" lon="6.80921">
        <ele>1986</ele>
        <time>2026-09-01T11:27:09.000Z</time>
      </trkpt>
      <trkpt lat="46.19649" lon="6.80976">
        <ele>1986</ele>
        <time>2026-09-01T11:27:53.000Z</time>
      </trkpt>
      <trkpt lat="46.19656" lon="6.81046">
        <ele>1990</ele>
        <time>2026-09-01T11:29:30.000Z</time>
      </trkpt>
      <trkpt lat="46.19655" lon="6.81085">
        <ele>1990</ele>
        <time>2026-09-01T11:30:01.000Z</time>
      </trkpt>
      <trkpt lat="46.19651" lon="6.81112">
        <ele>1986</ele>
        <time>2026-09-01T11:30:23.000Z</time>
      </trkpt>
      <trkpt lat="46.19638" lon="6.81136">
        <ele>1983</ele>
        <time>2026-09-01T11:30:46.000Z</time>
      </trkpt>
      <trkpt lat="46.1964" lon="6.81141">
        <ele>1982</ele>
        <time>2026-09-01T11:30:50.000Z</time>
      </trkpt>
      <trkpt lat="46.19647" lon="6.81168">
        <ele>1976</ele>
        <time>2026-09-01T11:31:13.000Z</time>
      </trkpt>
      <trkpt lat="46.19622" lon="6.81212">
        <ele>1985</ele>
        <time>2026-09-01T11:33:30.000Z</time>
      </trkpt>
      <trkpt lat="46.19637" lon="6.81294">
        <ele>1983</ele>
        <time>2026-09-01T11:34:37.000Z</time>
      </trkpt>
      <trkpt lat="46.19651" lon="6.8132">
        <ele>1983</ele>
        <time>2026-09-01T11:35:03.000Z</time>
      </trkpt>
      <trkpt lat="46.19605" lon="6.81406">
        <ele>1981</ele>
        <time>2026-09-01T11:36:29.000Z</time>
      </trkpt>
      <trkpt lat="46.19586" lon="6.81428">
        <ele>1984</ele>
        <time>2026-09-01T11:37:27.000Z</time>
      </trkpt>
      <trkpt lat="46.19592" lon="6.81451">
        <ele>1982</ele>
        <time>2026-09-01T11:37:47.000Z</time>
      </trkpt>
      <trkpt lat="46.19583" lon="6.81481">
        <ele>1982</ele>
        <time>2026-09-01T11:38:13.000Z</time>
      </trkpt>
      <trkpt lat="46.19561" lon="6.81518">
        <ele>1992</ele>
        <time>2026-09-01T11:40:34.000Z</time>
      </trkpt>
      <trkpt lat="46.19559" lon="6.81536">
        <ele>1991</ele>
        <time>2026-09-01T11:40:49.000Z</time>
      </trkpt>
      <trkpt lat="46.19561" lon="6.81518">
        <ele>1992</ele>
        <time>2026-09-01T11:41:14.000Z</time>
      </trkpt>
      <trkpt lat="46.19583" lon="6.81481">
        <ele>1982</ele>
        <time>2026-09-01T11:41:53.000Z</time>
      </trkpt>
      <trkpt lat="46.19592" lon="6.81451">
        <ele>1982</ele>
        <time>2026-09-01T11:42:19.000Z</time>
      </trkpt>
      <trkpt lat="46.19586" lon="6.81428">
        <ele>1984</ele>
        <time>2026-09-01T11:42:59.000Z</time>
      </trkpt>
      <trkpt lat="46.19609" lon="6.81402">
        <ele>1981</ele>
        <time>2026-09-01T11:43:32.000Z</time>
      </trkpt>
      <trkpt lat="46.19651" lon="6.8132">
        <ele>1983</ele>
        <time>2026-09-01T11:45:14.000Z</time>
      </trkpt>
      <trkpt lat="46.19655" lon="6.81309">
        <ele>1982</ele>
        <time>2026-09-01T11:45:24.000Z</time>
      </trkpt>
      <trkpt lat="46.19665" lon="6.813">
        <ele>1979</ele>
        <time>2026-09-01T11:45:38.000Z</time>
      </trkpt>
      <trkpt lat="46.19666" lon="6.81294">
        <ele>1978</ele>
        <time>2026-09-01T11:45:44.000Z</time>
      </trkpt>
      <trkpt lat="46.19728" lon="6.81292">
        <ele>1974</ele>
        <time>2026-09-01T11:46:54.000Z</time>
      </trkpt>
      <trkpt lat="46.19751" lon="6.81285">
        <ele>1970</ele>
        <time>2026-09-01T11:47:21.000Z</time>
      </trkpt>
      <trkpt lat="46.19816" lon="6.81176">
        <ele>1964</ele>
        <time>2026-09-01T11:49:15.000Z</time>
      </trkpt>
      <trkpt lat="46.19816" lon="6.81166">
        <ele>1965</ele>
        <time>2026-09-01T11:49:33.000Z</time>
      </trkpt>
      <trkpt lat="46.19811" lon="6.81156">
        <ele>1966</ele>
        <time>2026-09-01T11:49:53.000Z</time>
      </trkpt>
      <trkpt lat="46.198" lon="6.81135">
        <ele>1967</ele>
        <time>2026-09-01T11:50:24.000Z</time>
      </trkpt>
      <trkpt lat="46.19788" lon="6.81123">
        <ele>1968</ele>
        <time>2026-09-01T11:50:51.000Z</time>
      </trkpt>
      <trkpt lat="46.19782" lon="6.81095">
        <ele>1970</ele>
        <time>2026-09-01T11:51:35.000Z</time>
      </trkpt>
      <trkpt lat="46.19769" lon="6.81075">
        <ele>1970</ele>
        <time>2026-09-01T11:51:58.000Z</time>
      </trkpt>
      <trkpt lat="46.19778" lon="6.81031">
        <ele>1969</ele>
        <time>2026-09-01T11:52:34.000Z</time>
      </trkpt>
      <trkpt lat="46.198" lon="6.81008">
        <ele>1968</ele>
        <time>2026-09-01T11:53:05.000Z</time>
      </trkpt>
      <trkpt lat="46.19802" lon="6.8099">
        <ele>1969</ele>
        <time>2026-09-01T11:53:30.000Z</time>
      </trkpt>
      <trkpt lat="46.19796" lon="6.80967">
        <ele>1970</ele>
        <time>2026-09-01T11:54:00.000Z</time>
      </trkpt>
      <trkpt lat="46.19783" lon="6.80952">
        <ele>1971</ele>
        <time>2026-09-01T11:54:30.000Z</time>
      </trkpt>
      <trkpt lat="46.19784" lon="6.80927">
        <ele>1974</ele>
        <time>2026-09-01T11:55:21.000Z</time>
      </trkpt>
      <trkpt lat="46.19773" lon="6.80905">
        <ele>1975</ele>
        <time>2026-09-01T11:55:53.000Z</time>
      </trkpt>
      <trkpt lat="46.19783" lon="6.80894">
        <ele>1975</ele>
        <time>2026-09-01T11:56:08.000Z</time>
      </trkpt>
      <trkpt lat="46.19786" lon="6.80885">
        <ele>1975</ele>
        <time>2026-09-01T11:56:16.000Z</time>
      </trkpt>
      <trkpt lat="46.19783" lon="6.80855">
        <ele>1976</ele>
        <time>2026-09-01T11:56:51.000Z</time>
      </trkpt>
      <trkpt lat="46.19776" lon="6.80846">
        <ele>1976</ele>
        <time>2026-09-01T11:57:02.000Z</time>
      </trkpt>
      <trkpt lat="46.19757" lon="6.80837">
        <ele>1977</ele>
        <time>2026-09-01T11:57:35.000Z</time>
      </trkpt>
      <trkpt lat="46.19755" lon="6.80792">
        <ele>1982</ele>
        <time>2026-09-01T11:59:02.000Z</time>
      </trkpt>
      <trkpt lat="46.19743" lon="6.80772">
        <ele>1986</ele>
        <time>2026-09-01T12:00:04.000Z</time>
      </trkpt>
      <trkpt lat="46.19725" lon="6.80723">
        <ele>1993</ele>
        <time>2026-09-01T12:01:59.000Z</time>
      </trkpt>
      <trkpt lat="46.197" lon="6.80697">
        <ele>1994</ele>
        <time>2026-09-01T12:02:45.000Z</time>
      </trkpt>
      <trkpt lat="46.19706" lon="6.80631">
        <ele>1992</ele>
        <time>2026-09-01T12:03:37.000Z</time>
      </trkpt>
      <trkpt lat="46.19698" lon="6.80621">
        <ele>1993</ele>
        <time>2026-09-01T12:03:59.000Z</time>
      </trkpt>
      <trkpt lat="46.19686" lon="6.80573">
        <ele>1995</ele>
        <time>2026-09-01T12:05:00.000Z</time>
      </trkpt>
      <trkpt lat="46.19688" lon="6.80546">
        <ele>1995</ele>
        <time>2026-09-01T12:05:21.000Z</time>
      </trkpt>
      <trkpt lat="46.19694" lon="6.80527">
        <ele>1995</ele>
        <time>2026-09-01T12:05:38.000Z</time>
      </trkpt>
      <trkpt lat="46.19692" lon="6.80518">
        <ele>1994</ele>
        <time>2026-09-01T12:05:46.000Z</time>
      </trkpt>
      <trkpt lat="46.19697" lon="6.80493">
        <ele>1994</ele>
        <time>2026-09-01T12:06:06.000Z</time>
      </trkpt>
      <trkpt lat="46.19712" lon="6.80435">
        <ele>1989</ele>
        <time>2026-09-01T12:06:55.000Z</time>
      </trkpt>
      <trkpt lat="46.19727" lon="6.80406">
        <ele>1985</ele>
        <time>2026-09-01T12:07:24.000Z</time>
      </trkpt>
      <trkpt lat="46.19744" lon="6.80339">
        <ele>1979</ele>
        <time>2026-09-01T12:08:20.000Z</time>
      </trkpt>
      <trkpt lat="46.19749" lon="6.80335">
        <ele>1979</ele>
        <time>2026-09-01T12:08:26.000Z</time>
      </trkpt>
      <trkpt lat="46.19776" lon="6.80265">
        <ele>1972</ele>
        <time>2026-09-01T12:09:29.000Z</time>
      </trkpt>
      <trkpt lat="46.19788" lon="6.80243">
        <ele>1970</ele>
        <time>2026-09-01T12:09:51.000Z</time>
      </trkpt>
      <trkpt lat="46.1979" lon="6.80227">
        <ele>1968</ele>
        <time>2026-09-01T12:10:04.000Z</time>
      </trkpt>
      <trkpt lat="46.19789" lon="6.802">
        <ele>1965</ele>
        <time>2026-09-01T12:10:25.000Z</time>
      </trkpt>
      <trkpt lat="46.19795" lon="6.80186">
        <ele>1965</ele>
        <time>2026-09-01T12:10:38.000Z</time>
      </trkpt>
      <trkpt lat="46.19793" lon="6.80159">
        <ele>1963</ele>
        <time>2026-09-01T12:10:59.000Z</time>
      </trkpt>
      <trkpt lat="46.19802" lon="6.80133">
        <ele>1962</ele>
        <time>2026-09-01T12:11:22.000Z</time>
      </trkpt>
      <trkpt lat="46.19798" lon="6.80111">
        <ele>1960</ele>
        <time>2026-09-01T12:11:41.000Z</time>
      </trkpt>
      <trkpt lat="46.19802" lon="6.80068">
        <ele>1959</ele>
        <time>2026-09-01T12:12:15.000Z</time>
      </trkpt>
      <trkpt lat="46.19807" lon="6.80055">
        <ele>1958</ele>
        <time>2026-09-01T12:12:27.000Z</time>
      </trkpt>
      <trkpt lat="46.19817" lon="6.80039">
        <ele>1957</ele>
        <time>2026-09-01T12:12:44.000Z</time>
      </trkpt>
      <trkpt lat="46.19844" lon="6.79962">
        <ele>1948</ele>
        <time>2026-09-01T12:13:53.000Z</time>
      </trkpt>
      <trkpt lat="46.19875" lon="6.79858">
        <ele>1938</ele>
        <time>2026-09-01T12:15:22.000Z</time>
      </trkpt>
      <trkpt lat="46.19885" lon="6.79839">
        <ele>1936</ele>
        <time>2026-09-01T12:15:41.000Z</time>
      </trkpt>
      <trkpt lat="46.19894" lon="6.79814">
        <ele>1935</ele>
        <time>2026-09-01T12:16:03.000Z</time>
      </trkpt>
      <trkpt lat="46.19905" lon="6.79798">
        <ele>1934</ele>
        <time>2026-09-01T12:16:21.000Z</time>
      </trkpt>
      <trkpt lat="46.1992" lon="6.79787">
        <ele>1933</ele>
        <time>2026-09-01T12:16:40.000Z</time>
      </trkpt>
      <trkpt lat="46.19967" lon="6.79762">
        <ele>1928</ele>
        <time>2026-09-01T12:17:37.000Z</time>
      </trkpt>
      <trkpt lat="46.19982" lon="6.79764">
        <ele>1928</ele>
        <time>2026-09-01T12:17:55.000Z</time>
      </trkpt>
      <trkpt lat="46.20022" lon="6.79756">
        <ele>1930</ele>
        <time>2026-09-01T12:19:01.000Z</time>
      </trkpt>
      <trkpt lat="46.20026" lon="6.79752">
        <ele>1930</ele>
        <time>2026-09-01T12:19:07.000Z</time>
      </trkpt>
      <trkpt lat="46.20041" lon="6.79716">
        <ele>1929</ele>
        <time>2026-09-01T12:19:41.000Z</time>
      </trkpt>
      <trkpt lat="46.20054" lon="6.79716">
        <ele>1927</ele>
        <time>2026-09-01T12:19:56.000Z</time>
      </trkpt>
      <trkpt lat="46.20086" lon="6.79725">
        <ele>1923</ele>
        <time>2026-09-01T12:20:34.000Z</time>
      </trkpt>
      <trkpt lat="46.20105" lon="6.79724">
        <ele>1920</ele>
        <time>2026-09-01T12:20:55.000Z</time>
      </trkpt>
      <trkpt lat="46.20107" lon="6.79721">
        <ele>1920</ele>
        <time>2026-09-01T12:20:59.000Z</time>
      </trkpt>
      <trkpt lat="46.20087" lon="6.79698">
        <ele>1914</ele>
        <time>2026-09-01T12:21:28.000Z</time>
      </trkpt>
      <trkpt lat="46.20082" lon="6.79686">
        <ele>1913</ele>
        <time>2026-09-01T12:21:39.000Z</time>
      </trkpt>
      <trkpt lat="46.20098" lon="6.79684">
        <ele>1910</ele>
        <time>2026-09-01T12:21:57.000Z</time>
      </trkpt>
      <trkpt lat="46.20103" lon="6.79677">
        <ele>1910</ele>
        <time>2026-09-01T12:22:06.000Z</time>
      </trkpt>
      <trkpt lat="46.20109" lon="6.79646">
        <ele>1903</ele>
        <time>2026-09-01T12:22:31.000Z</time>
      </trkpt>
      <trkpt lat="46.20137" lon="6.79608">
        <ele>1895</ele>
        <time>2026-09-01T12:23:15.000Z</time>
      </trkpt>
      <trkpt lat="46.20142" lon="6.79579">
        <ele>1892</ele>
        <time>2026-09-01T12:23:39.000Z</time>
      </trkpt>
      <trkpt lat="46.20167" lon="6.79529">
        <ele>1887</ele>
        <time>2026-09-01T12:24:28.000Z</time>
      </trkpt>
      <trkpt lat="46.20199" lon="6.79481">
        <ele>1882</ele>
        <time>2026-09-01T12:25:21.000Z</time>
      </trkpt>
      <trkpt lat="46.20222" lon="6.7946">
        <ele>1882</ele>
        <time>2026-09-01T12:25:51.000Z</time>
      </trkpt>
      <trkpt lat="46.20241" lon="6.79435">
        <ele>1879</ele>
        <time>2026-09-01T12:26:21.000Z</time>
      </trkpt>
      <trkpt lat="46.20249" lon="6.79416">
        <ele>1876</ele>
        <time>2026-09-01T12:26:39.000Z</time>
      </trkpt>
      <trkpt lat="46.20276" lon="6.79387">
        <ele>1875</ele>
        <time>2026-09-01T12:27:17.000Z</time>
      </trkpt>
      <trkpt lat="46.20289" lon="6.79354">
        <ele>1870</ele>
        <time>2026-09-01T12:27:47.000Z</time>
      </trkpt>
      <trkpt lat="46.20324" lon="6.79308">
        <ele>1867</ele>
        <time>2026-09-01T12:28:41.000Z</time>
      </trkpt>
      <trkpt lat="46.2034" lon="6.79267">
        <ele>1860</ele>
        <time>2026-09-01T12:29:18.000Z</time>
      </trkpt>
      <trkpt lat="46.20349" lon="6.79261">
        <ele>1859</ele>
        <time>2026-09-01T12:29:30.000Z</time>
      </trkpt>
      <trkpt lat="46.20364" lon="6.7926">
        <ele>1859</ele>
        <time>2026-09-01T12:29:47.000Z</time>
      </trkpt>
      <trkpt lat="46.20383" lon="6.79256">
        <ele>1860</ele>
        <time>2026-09-01T12:30:19.000Z</time>
      </trkpt>
      <trkpt lat="46.20364" lon="6.7926">
        <ele>1859</ele>
        <time>2026-09-01T12:30:40.000Z</time>
      </trkpt>
      <trkpt lat="46.2042" lon="6.79276">
        <ele>1868</ele>
        <time>2026-09-01T12:33:17.000Z</time>
      </trkpt>
      <trkpt lat="46.20451" lon="6.79278">
        <ele>1870</ele>
        <time>2026-09-01T12:34:13.000Z</time>
      </trkpt>
      <trkpt lat="46.20491" lon="6.79277">
        <ele>1870</ele>
        <time>2026-09-01T12:34:59.000Z</time>
      </trkpt>
      <trkpt lat="46.20552" lon="6.79262">
        <ele>1869</ele>
        <time>2026-09-01T12:36:10.000Z</time>
      </trkpt>
      <trkpt lat="46.20565" lon="6.79264">
        <ele>1870</ele>
        <time>2026-09-01T12:36:35.000Z</time>
      </trkpt>
      <trkpt lat="46.2058" lon="6.79274">
        <ele>1873</ele>
        <time>2026-09-01T12:37:25.000Z</time>
      </trkpt>
      <trkpt lat="46.20608" lon="6.79273">
        <ele>1874</ele>
        <time>2026-09-01T12:38:07.000Z</time>
      </trkpt>
      <trkpt lat="46.2065" lon="6.79289">
        <ele>1879</ele>
        <time>2026-09-01T12:39:49.000Z</time>
      </trkpt>
      <trkpt lat="46.20665" lon="6.79288">
        <ele>1879</ele>
        <time>2026-09-01T12:40:06.000Z</time>
      </trkpt>
      <trkpt lat="46.20678" lon="6.79303">
        <ele>1883</ele>
        <time>2026-09-01T12:41:06.000Z</time>
      </trkpt>
      <trkpt lat="46.20701" lon="6.79305">
        <ele>1886</ele>
        <time>2026-09-01T12:42:04.000Z</time>
      </trkpt>
      <trkpt lat="46.20713" lon="6.79306">
        <ele>1887</ele>
        <time>2026-09-01T12:42:28.000Z</time>
      </trkpt>
      <trkpt lat="46.20727" lon="6.793">
        <ele>1888</ele>
        <time>2026-09-01T12:42:55.000Z</time>
      </trkpt>
      <trkpt lat="46.20765" lon="6.79293">
        <ele>1894</ele>
        <time>2026-09-01T12:44:40.000Z</time>
      </trkpt>
      <trkpt lat="46.20801" lon="6.79276">
        <ele>1898</ele>
        <time>2026-09-01T12:46:05.000Z</time>
      </trkpt>
      <trkpt lat="46.20851" lon="6.79274">
        <ele>1909</ele>
        <time>2026-09-01T12:48:55.000Z</time>
      </trkpt>
      <trkpt lat="46.20857" lon="6.79262">
        <ele>1909</ele>
        <time>2026-09-01T12:49:07.000Z</time>
      </trkpt>
      <trkpt lat="46.20864" lon="6.79257">
        <ele>1911</ele>
        <time>2026-09-01T12:49:37.000Z</time>
      </trkpt>
      <trkpt lat="46.20881" lon="6.79248">
        <ele>1913</ele>
        <time>2026-09-01T12:50:18.000Z</time>
      </trkpt>
      <trkpt lat="46.20909" lon="6.79239">
        <ele>1915</ele>
        <time>2026-09-01T12:51:12.000Z</time>
      </trkpt>
      <trkpt lat="46.2092" lon="6.79232">
        <ele>1916</ele>
        <time>2026-09-01T12:51:36.000Z</time>
      </trkpt>
      <trkpt lat="46.20946" lon="6.79233">
        <ele>1919</ele>
        <time>2026-09-01T12:52:36.000Z</time>
      </trkpt>
      <trkpt lat="46.2097" lon="6.79221">
        <ele>1918</ele>
        <time>2026-09-01T12:53:05.000Z</time>
      </trkpt>
      <trkpt lat="46.21025" lon="6.79206">
        <ele>1922</ele>
        <time>2026-09-01T12:54:50.000Z</time>
      </trkpt>
      <trkpt lat="46.21089" lon="6.79199">
        <ele>1928</ele>
        <time>2026-09-01T12:57:06.000Z</time>
      </trkpt>
      <trkpt lat="46.21096" lon="6.79194">
        <ele>1928</ele>
        <time>2026-09-01T12:57:14.000Z</time>
      </trkpt>
      <trkpt lat="46.21108" lon="6.79187">
        <ele>1928</ele>
        <time>2026-09-01T12:57:29.000Z</time>
      </trkpt>
      <trkpt lat="46.2114" lon="6.7913">
        <ele>1920</ele>
        <time>2026-09-01T12:58:27.000Z</time>
      </trkpt>
      <trkpt lat="46.21215" lon="6.79029">
        <ele>1912</ele>
        <time>2026-09-01T13:00:25.000Z</time>
      </trkpt>
      <trkpt lat="46.21237" lon="6.79011">
        <ele>1911</ele>
        <time>2026-09-01T13:00:54.000Z</time>
      </trkpt>
      <trkpt lat="46.21246" lon="6.7901">
        <ele>1909</ele>
        <time>2026-09-01T13:01:04.000Z</time>
      </trkpt>
      <trkpt lat="46.21236" lon="6.78965">
        <ele>1905</ele>
        <time>2026-09-01T13:01:42.000Z</time>
      </trkpt>
      <trkpt lat="46.21216" lon="6.78899">
        <ele>1886</ele>
        <time>2026-09-01T13:02:39.000Z</time>
      </trkpt>
      <trkpt lat="46.21212" lon="6.78877">
        <ele>1880</ele>
        <time>2026-09-01T13:02:57.000Z</time>
      </trkpt>
      <trkpt lat="46.21215" lon="6.78777">
        <ele>1860</ele>
        <time>2026-09-01T13:04:16.000Z</time>
      </trkpt>
      <trkpt lat="46.21211" lon="6.78743">
        <ele>1853</ele>
        <time>2026-09-01T13:04:43.000Z</time>
      </trkpt>
      <trkpt lat="46.21195" lon="6.7869">
        <ele>1842</ele>
        <time>2026-09-01T13:05:29.000Z</time>
      </trkpt>
      <trkpt lat="46.21199" lon="6.78528">
        <ele>1822</ele>
        <time>2026-09-01T13:07:37.000Z</time>
      </trkpt>
      <trkpt lat="46.21199" lon="6.78539">
        <ele>1823</ele>
        <time>2026-09-01T13:07:56.000Z</time>
      </trkpt>
      <trkpt lat="46.2119" lon="6.78539">
        <ele>1823</ele>
        <time>2026-09-01T13:08:06.000Z</time>
      </trkpt>
      <trkpt lat="46.21181" lon="6.78545">
        <ele>1820</ele>
        <time>2026-09-01T13:08:17.000Z</time>
      </trkpt>
      <trkpt lat="46.21188" lon="6.78477">
        <ele>1810</ele>
        <time>2026-09-01T13:09:11.000Z</time>
      </trkpt>
      <trkpt lat="46.21188" lon="6.78473">
        <ele>1809</ele>
        <time>2026-09-01T13:09:14.000Z</time>
      </trkpt>
      <trkpt lat="46.2118" lon="6.78468">
        <ele>1805</ele>
        <time>2026-09-01T13:09:24.000Z</time>
      </trkpt>
      <trkpt lat="46.21193" lon="6.78418">
        <ele>1797</ele>
        <time>2026-09-01T13:10:07.000Z</time>
      </trkpt>
      <trkpt lat="46.21178" lon="6.78419">
        <ele>1794</ele>
        <time>2026-09-01T13:10:24.000Z</time>
      </trkpt>
      <trkpt lat="46.21187" lon="6.78397">
        <ele>1790</ele>
        <time>2026-09-01T13:10:44.000Z</time>
      </trkpt>
      <trkpt lat="46.21204" lon="6.78382">
        <ele>1788</ele>
        <time>2026-09-01T13:11:07.000Z</time>
      </trkpt>
      <trkpt lat="46.21208" lon="6.78377">
        <ele>1787</ele>
        <time>2026-09-01T13:11:13.000Z</time>
      </trkpt>
      <trkpt lat="46.21206" lon="6.78376">
        <ele>1786</ele>
        <time>2026-09-01T13:11:16.000Z</time>
      </trkpt>
      <trkpt lat="46.21187" lon="6.78372">
        <ele>1781</ele>
        <time>2026-09-01T13:11:38.000Z</time>
      </trkpt>
      <trkpt lat="46.21213" lon="6.78344">
        <ele>1777</ele>
        <time>2026-09-01T13:12:15.000Z</time>
      </trkpt>
      <trkpt lat="46.21219" lon="6.78324">
        <ele>1771</ele>
        <time>2026-09-01T13:12:32.000Z</time>
      </trkpt>
      <trkpt lat="46.21232" lon="6.78308">
        <ele>1770</ele>
        <time>2026-09-01T13:12:52.000Z</time>
      </trkpt>
      <trkpt lat="46.21268" lon="6.78234">
        <ele>1755</ele>
        <time>2026-09-01T13:14:04.000Z</time>
      </trkpt>
      <trkpt lat="46.21279" lon="6.7821">
        <ele>1751</ele>
        <time>2026-09-01T13:14:26.000Z</time>
      </trkpt>
      <trkpt lat="46.21288" lon="6.78169">
        <ele>1744</ele>
        <time>2026-09-01T13:15:00.000Z</time>
      </trkpt>
      <trkpt lat="46.21291" lon="6.78106">
        <ele>1733</ele>
        <time>2026-09-01T13:15:50.000Z</time>
      </trkpt>
      <trkpt lat="46.21289" lon="6.78084">
        <ele>1730</ele>
        <time>2026-09-01T13:16:08.000Z</time>
      </trkpt>
      <trkpt lat="46.21304" lon="6.78052">
        <ele>1730</ele>
        <time>2026-09-01T13:16:39.000Z</time>
      </trkpt>
      <trkpt lat="46.21305" lon="6.78038">
        <ele>1730</ele>
        <time>2026-09-01T13:16:50.000Z</time>
      </trkpt>
      <trkpt lat="46.21302" lon="6.78018">
        <ele>1727</ele>
        <time>2026-09-01T13:17:06.000Z</time>
      </trkpt>
      <trkpt lat="46.21291" lon="6.78026">
        <ele>1723</ele>
        <time>2026-09-01T13:17:20.000Z</time>
      </trkpt>
      <trkpt lat="46.21288" lon="6.78005">
        <ele>1719</ele>
        <time>2026-09-01T13:17:37.000Z</time>
      </trkpt>
      <trkpt lat="46.21276" lon="6.78005">
        <ele>1716</ele>
        <time>2026-09-01T13:17:51.000Z</time>
      </trkpt>
      <trkpt lat="46.21276" lon="6.78001">
        <ele>1715</ele>
        <time>2026-09-01T13:17:54.000Z</time>
      </trkpt>
      <trkpt lat="46.21284" lon="6.77986">
        <ele>1713</ele>
        <time>2026-09-01T13:18:09.000Z</time>
      </trkpt>
      <trkpt lat="46.21292" lon="6.77979">
        <ele>1713</ele>
        <time>2026-09-01T13:18:20.000Z</time>
      </trkpt>
      <trkpt lat="46.21297" lon="6.77961">
        <ele>1711</ele>
        <time>2026-09-01T13:18:34.000Z</time>
      </trkpt>
      <trkpt lat="46.21308" lon="6.77948">
        <ele>1710</ele>
        <time>2026-09-01T13:18:50.000Z</time>
      </trkpt>
      <trkpt lat="46.21312" lon="6.7793">
        <ele>1706</ele>
        <time>2026-09-01T13:19:05.000Z</time>
      </trkpt>
      <trkpt lat="46.21321" lon="6.77913">
        <ele>1707</ele>
        <time>2026-09-01T13:19:33.000Z</time>
      </trkpt>
      <trkpt lat="46.21322" lon="6.77892">
        <ele>1700</ele>
        <time>2026-09-01T13:19:50.000Z</time>
      </trkpt>
      <trkpt lat="46.21336" lon="6.77853">
        <ele>1692</ele>
        <time>2026-09-01T13:20:25.000Z</time>
      </trkpt>
      <trkpt lat="46.21366" lon="6.77794">
        <ele>1685</ele>
        <time>2026-09-01T13:21:23.000Z</time>
      </trkpt>
      <trkpt lat="46.21392" lon="6.77731">
        <ele>1675</ele>
        <time>2026-09-01T13:22:21.000Z</time>
      </trkpt>
      <trkpt lat="46.21395" lon="6.7771">
        <ele>1671</ele>
        <time>2026-09-01T13:22:38.000Z</time>
      </trkpt>
      <trkpt lat="46.21379" lon="6.77724">
        <ele>1668</ele>
        <time>2026-09-01T13:23:00.000Z</time>
      </trkpt>
      <trkpt lat="46.21353" lon="6.77738">
        <ele>1661</ele>
        <time>2026-09-01T13:23:31.000Z</time>
      </trkpt>
      <trkpt lat="46.21367" lon="6.77707">
        <ele>1656</ele>
        <time>2026-09-01T13:24:00.000Z</time>
      </trkpt>
      <trkpt lat="46.21381" lon="6.77659">
        <ele>1648</ele>
        <time>2026-09-01T13:24:41.000Z</time>
      </trkpt>
      <trkpt lat="46.21383" lon="6.7765">
        <ele>1645</ele>
        <time>2026-09-01T13:24:49.000Z</time>
      </trkpt>
      <trkpt lat="46.2138" lon="6.77651">
        <ele>1645</ele>
        <time>2026-09-01T13:24:52.000Z</time>
      </trkpt>
      <trkpt lat="46.21363" lon="6.77667">
        <ele>1643</ele>
        <time>2026-09-01T13:25:15.000Z</time>
      </trkpt>
      <trkpt lat="46.21333" lon="6.77688">
        <ele>1638</ele>
        <time>2026-09-01T13:25:54.000Z</time>
      </trkpt>
      <trkpt lat="46.21355" lon="6.77626">
        <ele>1628</ele>
        <time>2026-09-01T13:26:49.000Z</time>
      </trkpt>
      <trkpt lat="46.21356" lon="6.77622">
        <ele>1627</ele>
        <time>2026-09-01T13:26:53.000Z</time>
      </trkpt>
      <trkpt lat="46.21354" lon="6.77621">
        <ele>1627</ele>
        <time>2026-09-01T13:26:55.000Z</time>
      </trkpt>
      <trkpt lat="46.2132" lon="6.77649">
        <ele>1622</ele>
        <time>2026-09-01T13:27:39.000Z</time>
      </trkpt>
      <trkpt lat="46.21262" lon="6.77687">
        <ele>1612</ele>
        <time>2026-09-01T13:28:53.000Z</time>
      </trkpt>
      <trkpt lat="46.21238" lon="6.77709">
        <ele>1610</ele>
        <time>2026-09-01T13:29:25.000Z</time>
      </trkpt>
      <trkpt lat="46.21233" lon="6.77709">
        <ele>1609</ele>
        <time>2026-09-01T13:29:31.000Z</time>
      </trkpt>
      <trkpt lat="46.21226" lon="6.77703">
        <ele>1604</ele>
        <time>2026-09-01T13:29:40.000Z</time>
      </trkpt>
      <trkpt lat="46.2123" lon="6.77692">
        <ele>1603</ele>
        <time>2026-09-01T13:29:50.000Z</time>
      </trkpt>
      <trkpt lat="46.21216" lon="6.77687">
        <ele>1598</ele>
        <time>2026-09-01T13:30:07.000Z</time>
      </trkpt>
      <trkpt lat="46.21215" lon="6.77682">
        <ele>1596</ele>
        <time>2026-09-01T13:30:11.000Z</time>
      </trkpt>
      <trkpt lat="46.21184" lon="6.77684">
        <ele>1590</ele>
        <time>2026-09-01T13:30:47.000Z</time>
      </trkpt>
      <trkpt lat="46.21156" lon="6.77697">
        <ele>1587</ele>
        <time>2026-09-01T13:31:20.000Z</time>
      </trkpt>
      <trkpt lat="46.21137" lon="6.77693">
        <ele>1583</ele>
        <time>2026-09-01T13:31:42.000Z</time>
      </trkpt>
      <trkpt lat="46.2112" lon="6.77694">
        <ele>1580</ele>
        <time>2026-09-01T13:32:02.000Z</time>
      </trkpt>
      <trkpt lat="46.21098" lon="6.7771">
        <ele>1579</ele>
        <time>2026-09-01T13:32:30.000Z</time>
      </trkpt>
      <trkpt lat="46.21061" lon="6.7775">
        <ele>1577</ele>
        <time>2026-09-01T13:33:23.000Z</time>
      </trkpt>
      <trkpt lat="46.21039" lon="6.77753">
        <ele>1576</ele>
        <time>2026-09-01T13:33:49.000Z</time>
      </trkpt>
      <trkpt lat="46.21031" lon="6.77747">
        <ele>1575</ele>
        <time>2026-09-01T13:34:00.000Z</time>
      </trkpt>
      <trkpt lat="46.21022" lon="6.77717">
        <ele>1569</ele>
        <time>2026-09-01T13:34:26.000Z</time>
      </trkpt>
      <trkpt lat="46.21042" lon="6.77677">
        <ele>1560</ele>
        <time>2026-09-01T13:35:05.000Z</time>
      </trkpt>
      <trkpt lat="46.21039" lon="6.77666">
        <ele>1558</ele>
        <time>2026-09-01T13:35:14.000Z</time>
      </trkpt>
      <trkpt lat="46.21015" lon="6.77664">
        <ele>1552</ele>
        <time>2026-09-01T13:35:42.000Z</time>
      </trkpt>
      <trkpt lat="46.20977" lon="6.77672">
        <ele>1544</ele>
        <time>2026-09-01T13:36:26.000Z</time>
      </trkpt>
      <trkpt lat="46.20951" lon="6.77672">
        <ele>1537</ele>
        <time>2026-09-01T13:36:55.000Z</time>
      </trkpt>
      <trkpt lat="46.20926" lon="6.77692">
        <ele>1532</ele>
        <time>2026-09-01T13:37:28.000Z</time>
      </trkpt>
      <trkpt lat="46.20921" lon="6.7769">
        <ele>1530</ele>
        <time>2026-09-01T13:37:34.000Z</time>
      </trkpt>
      <trkpt lat="46.20923" lon="6.77659">
        <ele>1531</ele>
        <time>2026-09-01T13:38:09.000Z</time>
      </trkpt>
      <trkpt lat="46.20927" lon="6.77643">
        <ele>1529</ele>
        <time>2026-09-01T13:38:23.000Z</time>
      </trkpt>
      <trkpt lat="46.20947" lon="6.77614">
        <ele>1525</ele>
        <time>2026-09-01T13:38:56.000Z</time>
      </trkpt>
      <trkpt lat="46.20964" lon="6.77578">
        <ele>1513</ele>
        <time>2026-09-01T13:39:30.000Z</time>
      </trkpt>
      <trkpt lat="46.20972" lon="6.77545">
        <ele>1502</ele>
        <time>2026-09-01T13:39:58.000Z</time>
      </trkpt>
      <trkpt lat="46.20971" lon="6.77521">
        <ele>1500</ele>
        <time>2026-09-01T13:40:17.000Z</time>
      </trkpt>
      <trkpt lat="46.20968" lon="6.7751">
        <ele>1499</ele>
        <time>2026-09-01T13:40:26.000Z</time>
      </trkpt>
      <trkpt lat="46.20962" lon="6.77503">
        <ele>1499</ele>
        <time>2026-09-01T13:40:35.000Z</time>
      </trkpt>
      <trkpt lat="46.20951" lon="6.77499">
        <ele>1497</ele>
        <time>2026-09-01T13:40:48.000Z</time>
      </trkpt>
      <trkpt lat="46.20925" lon="6.77503">
        <ele>1492</ele>
        <time>2026-09-01T13:41:18.000Z</time>
      </trkpt>
      <trkpt lat="46.2091" lon="6.7751">
        <ele>1490</ele>
        <time>2026-09-01T13:41:36.000Z</time>
      </trkpt>
      <trkpt lat="46.20907" lon="6.77525">
        <ele>1492</ele>
        <time>2026-09-01T13:42:08.000Z</time>
      </trkpt>
      <trkpt lat="46.20898" lon="6.77536">
        <ele>1492</ele>
        <time>2026-09-01T13:42:22.000Z</time>
      </trkpt>
    </trkseg>
  </trk>
</gpx>